UKON/NLV METAR and TAF weather

Enter ICAO airport designator
Station Type Date Time Source
UKON METAR 2020/10/20 08:00 UTC NOAA

UKON 200800Z 33002MPS 280V360 CAVOK 11/04 Q1028 R22/090075 NOSIG


Station Type Date Time Source
UKON Decoded METAR 2020/10/20 08:00 UTC NOAA

Mykolaiv, Ukraine (UKON) 47-03-29N 031-55-15E
Oct 20, 2020 - 04:00 AM EDT / 2020.10.20 0800 UTC
Wind: from the NNW (330 degrees) at 4 MPH (4 KT) (direction variable):0
Visibility: greater than 7 mile(s):0
Temperature: 51 F (11 C)
Dew Point: 39 F (4 C)
Relative Humidity: 61%
Pressure (altimeter): 30.36 in. Hg (1028 hPa)
ob: UKON 200800Z 33002MPS 280V360 CAVOK 11/04 Q1028 R22/090075 NOSIG
cycle: 8

Station Type Date Time Source
UKON TAF 2018/11/06 15:06 UTC NOAA

TAF
AMD TAF
AMD UKON 061502Z 0615/0724 CNL

Example: see airport list